EmailTwitter


Observations de surface / France / LFMK (07635)

Régions: Québec | Canada | États-Unis | Europe | France | UK | Ailleurs
Station
Affichage
Infos & localisation pour LFMK (07635) | Aide pour décoder les METARs

Observations prises le 2020-07-10 à 00H30 UTC à CARCASSONNE/SALV, FR (LFMK)

Température: 22.0 Celsius

Point de rosée: 16.0 Celsius

Humidité relative: 69%

Indice Humidex: 27.

Vents: Sud-ouest à 6 km/h ou 3 noeuds.

Pression au niveau moyen de la mer: 101.70 kilopascals.

Observation METAR:

LFMK 100030Z AUTO 21003KT 170V240 CAVOK 22/16 Q1017 =